首页
METAR-TAF:

METAR-TAF

机场 :

拉巴特-塞拉国际机场

拉巴特, 摩洛哥

纬度: 34-03N, 经度: 006-46W, 海拔: 84米

当前天气观测

该预报发布于10分钟前的23:00 UTC
风速7节,风向西北,在西之间变化
温度 13°C
湿度 88%
气压 1020 hPa
能见度10公里或以上
散云层高于1300英尺
多云层高于2600英尺

METAR: GMME 232300Z 32007KT 280V360 9999 SCT013 BKN026 13/11 Q1020 NOSIG

时间: 23:10 (23:10 UTC)

预报

该预报发布于6小时和10分钟前的17:00 UTC
预报有效从23日的 18点(UTC)到 24日的 24点(UTC)
风速10节,风向西南
能見度: 8000
散云层高于1500英尺
散云层高于2000英尺
多云层高于7000英尺
短暂存在
从 23日的 18点(UTC)到 24日的 12点(UTC)
能見度: 4000
多云层高于1300英尺, 塔状积云.
多云层高于1600英尺
成为
从 24日的 15点(UTC)到 24日的 18点(UTC)
风速8节,风向东南
能見度: 6000
散云层高于1300英尺
散云层高于2300英尺

TAF: GMME 231700Z 2318/2424 22010KT 8000 SCT015 SCT020 BKN070 TEMPO 2318/2412 4000 RA BKN013TCU BKN016 BECMG 2415/2418 14008KT 6000 NSW SCT013 SCT023

超过4000个机场的气象观测和天气预报(METAR&TAF报告)。

可查询的气象台以黄色和红色小点在地图上表示。

将鼠标移到小点上方,可查看气象台名称。

然后点击查看天气观测和预报。

如需切换地图:点击带黑十字的绿色按钮放大地图;点击带横线的绿色按钮缩小地图;或者点击绿色箭头查看邻近地区的地图。


METAR-TAF: